Time;durP1;ratioP1;P1;durP2;ratioP2;P2;SDS_P1;SDS_P2;PMS_P1;PMS_P2;Temp;Humidity;BMP_temperature;BMP_pressure;BME280_temperature;BME280_humidity;BME280_pressure;Samples;Min_cycle;Max_cycle;Signal;HPM_P1;HPM_P2
2022/05/25 00:00:46;;;;;;;4.93;2.47;;;17.40;99.90;;;;;;5051515;28;20047;-75
2022/05/25 00:03:12;;;;;;;5.90;2.67;;;17.30;99.90;;;;;;5049191;28;20360;-76
2022/05/25 00:05:38;;;;;;;4.90;2.70;;;17.40;99.90;;;;;;5042887;28;20041;-76
2022/05/25 00:08:04;;;;;;;4.03;2.33;;;17.40;99.90;;;;;;5048577;28;20044;-75
2022/05/25 00:10:30;;;;;;;9.48;2.38;;;17.40;99.90;;;;;;5059643;28;20386;-76
2022/05/25 00:12:56;;;;;;;7.50;2.83;;;17.40;99.90;;;;;;5049770;28;20033;-76
2022/05/25 00:15:23;;;;;;;5.07;2.85;;;17.40;99.90;;;;;;5043347;28;20033;-76
2022/05/25 00:17:48;;;;;;;7.20;3.10;;;17.10;99.90;;;;;;5048231;28;20037;-76
2022/05/25 00:20:14;;;;;;;4.72;2.70;;;17.10;99.90;;;;;;5044126;28;20086;-76
2022/05/25 00:22:46;;;;;;;8.38;3.30;;;17.10;99.90;;;;;;5050350;28;20114;-76
2022/05/25 00:25:17;;;;;;;8.65;3.83;;;17.10;99.90;;;;;;5038161;28;20024;-76
2022/05/25 00:27:43;;;;;;;6.78;3.30;;;17.00;99.90;;;;;;5049469;28;20037;-76
2022/05/25 00:30:09;;;;;;;12.68;3.80;;;17.10;99.90;;;;;;5052007;28;20035;-76
2022/05/25 00:32:36;;;;;;;10.38;4.53;;;17.00;99.90;;;;;;5049044;28;20021;-76
2022/05/25 00:35:02;;;;;;;6.75;4.35;;;17.00;99.90;;;;;;5050574;28;20360;-76
2022/05/25 00:37:27;;;;;;;8.98;4.70;;;17.10;99.90;;;;;;5044501;28;20119;-76
2022/05/25 00:39:53;;;;;;;6.30;4.43;;;17.10;99.90;;;;;;5048025;28;20107;-76
2022/05/25 00:42:19;;;;;;;6.53;3.78;;;17.20;99.90;;;;;;5038875;28;20071;-76
2022/05/25 00:44:45;;;;;;;6.00;3.47;;;17.30;99.90;;;;;;5046590;28;20056;-76
2022/05/25 00:47:13;;;;;;;6.60;3.53;;;17.10;99.90;;;;;;5046243;28;20399;-76
2022/05/25 00:49:39;;;;;;;8.35;4.05;;;17.20;99.90;;;;;;5049084;28;20424;-76
2022/05/25 00:52:08;;;;;;;7.80;3.40;;;17.20;99.90;;;;;;5058710;28;20116;-76
2022/05/25 00:54:39;;;;;;;10.77;4.38;;;17.00;99.90;;;;;;5045765;28;20452;-75
2022/05/25 00:57:14;;;;;;;8.25;4.72;;;17.20;99.90;;;;;;5059833;28;20483;-76
2022/05/25 00:59:57;;;;;;;7.07;4.32;;;17.40;99.90;;;;;;5056874;28;20024;-76
2022/05/25 01:02:26;;;;;;;7.23;4.27;;;17.60;99.90;;;;;;5044683;28;20506;-76
2022/05/25 01:04:51;;;;;;;13.13;4.63;;;17.50;99.90;;;;;;5048149;28;20056;-76
2022/05/25 01:07:33;;;;;;;7.03;3.42;;;17.40;99.90;;;;;;5043871;28;20033;-75
2022/05/25 01:10:30;;;;;;;8.15;3.95;;;17.40;99.90;;;;;;5046766;28;20551;-76
2022/05/25 01:13:18;;;;;;;7.40;3.92;;;17.40;99.90;;;;;;5044281;28;20168;-76
2022/05/25 01:16:13;;;;;;;5.47;4.03;;;17.30;99.90;;;;;;5051981;28;20499;-76
2022/05/25 01:19:05;;;;;;;7.63;3.72;;;17.20;99.90;;;;;;5048296;28;20112;-76
2022/05/25 01:21:39;;;;;;;6.75;4.80;;;17.10;99.90;;;;;;5043920;28;20025;-76
2022/05/25 01:24:23;;;;;;;7.55;4.03;;;17.20;99.90;;;;;;5044546;28;20037;-76
2022/05/25 01:26:55;;;;;;;;;;;17.20;99.90;;;;;;5041792;28;20029;-76
2022/05/25 01:30:00;;;;;;;8.50;3.50;;;17.20;99.90;;;;;;5040161;28;19909;-76
2022/05/25 01:32:46;;;;;;;5.32;2.70;;;17.20;99.90;;;;;;5046900;28;20487;-76
2022/05/25 01:35:14;;;;;;;6.88;3.30;;;17.20;99.90;;;;;;5034067;28;20030;-76
2022/05/25 01:37:52;;;;;;;6.97;3.60;;;17.20;99.90;;;;;;5044376;28;20033;-76
2022/05/25 01:40:36;;;;;;;7.70;3.67;;;17.20;99.90;;;;;;5046287;28;20116;-76
2022/05/25 01:43:27;;;;;;;6.00;3.30;;;17.30;99.90;;;;;;5052253;28;20033;-76
2022/05/25 01:45:57;;;;;;;6.32;4.10;;;17.40;99.90;;;;;;5039623;28;20033;-77
2022/05/25 01:48:26;;;;;;;5.63;3.42;;;17.50;99.90;;;;;;5047262;28;20560;-76
2022/05/25 01:51:09;;;;;;;8.18;3.50;;;17.50;99.90;;;;;;5040139;28;20068;-76
2022/05/25 01:53:40;;;;;;;6.13;3.03;;;17.50;99.90;;;;;;5047117;28;20040;-76
2022/05/25 01:56:08;;;;;;;6.95;2.78;;;17.50;99.90;;;;;;5049621;28;20077;-75
2022/05/25 01:58:40;;;;;;;5.93;3.70;;;17.50;99.90;;;;;;5048193;28;20037;-76
2022/05/25 02:01:08;;;;;;;8.82;4.80;;;17.50;99.90;;;;;;5043329;28;20215;-76
2022/05/25 02:06:21;;;;;;;;;;;17.10;99.90;;;;;;5040355;28;20044;-76
2022/05/25 02:09:12;;;;;;;5.75;4.10;;;17.20;99.90;;;;;;5046657;28;20342;-75
2022/05/25 02:11:48;;;;;;;6.40;3.35;;;17.10;99.90;;;;;;5051098;28;20041;-76
2022/05/25 02:14:20;;;;;;;6.18;3.67;;;17.20;99.90;;;;;;5042961;28;20028;-76
2022/05/25 02:16:51;;;;;;;6.68;3.40;;;17.10;99.90;;;;;;5044640;28;20025;-76
2022/05/25 02:19:33;;;;;;;5.72;3.58;;;17.10;99.90;;;;;;5037613;28;20479;-76
2022/05/25 02:22:11;;;;;;;10.27;3.85;;;17.20;99.90;;;;;;5044547;28;20086;-76
2022/05/25 02:24:54;;;;;;;8.82;3.75;;;17.20;99.90;;;;;;5038326;28;20128;-76
2022/05/25 02:27:55;;;;;;;5.70;3.55;;;17.10;99.90;;;;;;5041867;28;20040;-75
2022/05/25 02:30:24;;;;;;;6.40;3.92;;;17.10;99.90;;;;;;5040167;28;20095;-76
2022/05/25 02:33:13;;;;;;;8.10;4.35;;;17.20;99.90;;;;;;5048438;28;20033;-76
2022/05/25 02:35:41;;;;;;;5.20;3.63;;;17.10;99.90;;;;;;5039972;28;20076;-76
2022/05/25 02:38:08;;;;;;;6.20;3.80;;;17.10;99.90;;;;;;5048191;28;20045;-75
2022/05/25 02:40:36;;;;;;;6.22;3.50;;;17.20;99.90;;;;;;5043835;28;20025;-75
2022/05/25 02:43:04;;;;;;;6.93;4.07;;;17.20;99.90;;;;;;5050247;28;20099;-75
2022/05/25 02:45:29;;;;;;;8.02;3.97;;;17.10;99.90;;;;;;5053951;28;20029;-75
2022/05/25 02:47:55;;;;;;;7.10;4.63;;;17.00;99.90;;;;;;5054131;28;20045;-75
2022/05/25 02:50:21;;;;;;;5.45;3.80;;;16.90;99.90;;;;;;5050207;28;20423;-75
2022/05/25 02:52:47;;;;;;;7.35;3.97;;;17.00;99.90;;;;;;5049650;28;20055;-75
2022/05/25 02:55:13;;;;;;;8.07;5.05;;;17.10;99.90;;;;;;5048933;28;20376;-75
2022/05/25 02:57:40;;;;;;;18.23;5.72;;;17.20;99.90;;;;;;5064623;28;20032;-75
2022/05/25 03:00:08;;;;;;;7.60;4.32;;;17.10;99.90;;;;;;5050868;28;20094;-71
2022/05/25 03:02:35;;;;;;;7.45;4.65;;;17.10;99.90;;;;;;5044963;28;20081;-73
2022/05/25 03:05:00;;;;;;;7.75;4.03;;;17.10;99.90;;;;;;5046340;28;20049;-73
2022/05/25 03:07:26;;;;;;;6.20;3.92;;;17.20;99.90;;;;;;5047872;28;20067;-73
2022/05/25 03:09:52;;;;;;;5.50;3.47;;;17.20;99.90;;;;;;5041469;28;20893;-73
2022/05/25 03:12:18;;;;;;;6.82;4.18;;;17.20;99.90;;;;;;5048257;28;20090;-74
2022/05/25 03:14:44;;;;;;;6.10;3.45;;;17.10;99.90;;;;;;5044469;28;20041;-74
2022/05/25 03:17:14;;;;;;;8.23;3.97;;;17.10;99.90;;;;;;5043898;28;20029;-74
2022/05/25 03:19:41;;;;;;;5.93;3.75;;;17.00;99.90;;;;;;5038826;28;20060;-74
2022/05/25 03:22:07;;;;;;;6.38;3.83;;;17.00;99.90;;;;;;5041823;28;20037;-74
2022/05/25 03:24:33;;;;;;;6.68;4.20;;;17.10;99.90;;;;;;5037027;28;20025;-74
2022/05/25 03:26:59;;;;;;;6.43;5.05;;;17.10;99.90;;;;;;5037217;28;20036;-74
2022/05/25 03:29:26;;;;;;;8.93;4.30;;;16.90;99.90;;;;;;5046861;28;20455;-74
2022/05/25 03:31:52;;;;;;;6.15;4.50;;;16.80;99.90;;;;;;5043524;28;20034;-74
2022/05/25 03:34:19;;;;;;;7.57;4.57;;;16.70;99.90;;;;;;5039909;28;20032;-74
2022/05/25 03:36:47;;;;;;;6.72;4.05;;;16.70;99.90;;;;;;5036240;28;20116;-74
2022/05/25 03:39:13;;;;;;;16.92;5.13;;;16.80;99.90;;;;;;5045893;28;20320;-75
2022/05/25 03:41:39;;;;;;;8.80;5.20;;;16.90;99.90;;;;;;5045248;28;20155;-74
2022/05/25 03:44:05;;;;;;;8.45;4.95;;;16.90;99.90;;;;;;5041961;28;20041;-74
2022/05/25 03:46:32;;;;;;;6.28;5.03;;;17.00;99.90;;;;;;5044829;28;20487;-74
2022/05/25 03:48:58;;;;;;;7.28;4.97;;;17.00;99.90;;;;;;5032510;28;20040;-74
2022/05/25 03:51:23;;;;;;;5.68;4.00;;;16.80;99.90;;;;;;5040545;28;20553;-73
2022/05/25 03:53:49;;;;;;;7.28;3.58;;;16.90;99.90;;;;;;5042872;28;20040;-73
2022/05/25 03:56:16;;;;;;;5.38;3.50;;;16.90;99.90;;;;;;5039170;28;20021;-74
2022/05/25 03:58:43;;;;;;;10.05;4.80;;;17.00;99.90;;;;;;5045265;28;20037;-74
2022/05/25 04:01:09;;;;;;;8.77;4.57;;;16.80;99.90;;;;;;5042631;28;20087;-74
2022/05/25 04:03:34;;;;;;;6.47;4.65;;;16.70;99.90;;;;;;5044664;28;20501;-74
2022/05/25 04:06:00;;;;;;;6.30;4.88;;;16.80;99.90;;;;;;5038544;28;20036;-74
2022/05/25 04:08:26;;;;;;;7.40;4.70;;;16.80;99.90;;;;;;5038022;28;20044;-73
2022/05/25 04:10:51;;;;;;;5.97;4.13;;;16.80;99.90;;;;;;5048802;28;20033;-73
2022/05/25 04:13:17;;;;;;;7.80;4.32;;;16.70;99.90;;;;;;5036348;28;20101;-73
2022/05/25 04:15:42;;;;;;;7.57;4.63;;;16.40;99.90;;;;;;5041919;28;20083;-73
2022/05/25 04:18:08;;;;;;;9.43;4.32;;;16.50;99.90;;;;;;5034854;28;20453;-73
2022/05/25 04:20:34;;;;;;;7.25;4.80;;;16.70;99.90;;;;;;5036946;28;20025;-73
2022/05/25 04:23:00;;;;;;;7.75;3.85;;;16.80;99.90;;;;;;5040034;28;20564;-73
2022/05/25 04:25:26;;;;;;;8.90;4.50;;;16.80;99.90;;;;;;5043274;28;20029;-73
2022/05/25 04:27:55;;;;;;;7.78;4.43;;;16.80;99.90;;;;;;5042461;28;20375;-73
2022/05/25 04:30:27;;;;;;;6.10;4.13;;;16.90;99.90;;;;;;5041767;28;20107;-73
2022/05/25 04:32:53;;;;;;;7.68;3.78;;;17.00;99.90;;;;;;5045647;28;20056;-73
2022/05/25 04:35:19;;;;;;;7.30;3.90;;;17.10;99.90;;;;;;5037397;28;20033;-73
2022/05/25 04:37:55;;;;;;;6.60;4.00;;;17.30;99.90;;;;;;5040582;28;20511;-74
2022/05/25 04:40:37;;;;;;;10.35;3.70;;;17.30;99.90;;;;;;5044687;28;20420;-73
2022/05/25 04:43:12;;;;;;;6.03;4.40;;;17.30;99.90;;;;;;5037717;28;20102;-73
2022/05/25 04:45:39;;;;;;;7.70;4.00;;;17.20;99.90;;;;;;5039280;28;20028;-73
2022/05/25 04:48:04;;;;;;;7.20;4.07;;;17.10;99.90;;;;;;5038606;28;20087;-73
2022/05/25 04:50:34;;;;;;;9.80;3.47;;;17.00;99.90;;;;;;5046242;28;20107;-73
2022/05/25 04:53:00;;;;;;;6.75;3.80;;;16.90;99.90;;;;;;5036563;28;20100;-73
2022/05/25 04:58:23;;;;;;;6.35;3.65;;;17.00;99.90;;;;;;5043323;28;20044;-73
2022/05/25 05:00:49;;;;;;;5.18;3.55;;;16.80;99.90;;;;;;5043770;28;20033;-73
2022/05/25 05:03:16;;;;;;;5.32;3.10;;;16.70;99.90;;;;;;5039999;28;20530;-74
2022/05/25 05:05:42;;;;;;;9.18;3.70;;;16.70;99.90;;;;;;5038645;28;20067;-73
2022/05/25 05:08:08;;;;;;;5.28;3.92;;;16.70;99.90;;;;;;5034244;28;20472;-74
2022/05/25 05:10:34;;;;;;;6.22;4.80;;;16.60;99.90;;;;;;5047342;28;20090;-73
2022/05/25 05:13:04;;;;;;;6.20;3.95;;;16.80;99.90;;;;;;5036801;28;20040;-74
2022/05/25 05:15:34;;;;;;;5.95;4.40;;;16.80;99.90;;;;;;5033595;28;20021;-74
2022/05/25 05:18:01;;;;;;;7.15;4.95;;;17.10;99.90;;;;;;5036125;28;20037;-74
2022/05/25 05:20:27;;;;;;;6.28;4.72;;;17.20;99.90;;;;;;5041853;28;20033;-74
2022/05/25 05:22:52;;;;;;;7.72;4.80;;;17.30;99.90;;;;;;5041629;28;20043;-74
2022/05/25 05:25:18;;;;;;;6.72;5.43;;;17.50;99.90;;;;;;5045346;28;20543;-73
2022/05/25 05:27:45;;;;;;;7.10;5.15;;;17.60;99.90;;;;;;5049176;28;20068;-74
2022/05/25 05:30:14;;;;;;;7.57;5.25;;;17.60;99.90;;;;;;5046737;28;20025;-77
2022/05/25 05:32:39;;;;;;;7.47;4.57;;;17.40;99.90;;;;;;5047173;28;20086;-73
2022/05/25 05:35:06;;;;;;;6.30;4.05;;;17.20;99.90;;;;;;5042995;28;20029;-73
2022/05/25 05:37:51;;;;;;;6.95;4.00;;;17.20;99.90;;;;;;5043732;28;20033;-74
2022/05/25 05:40:19;;;;;;;9.13;4.28;;;17.10;99.90;;;;;;5043117;28;20033;-74
2022/05/25 05:42:47;;;;;;;6.65;4.35;;;17.30;99.90;;;;;;5041666;28;20033;-73
2022/05/25 05:45:22;;;;;;;4.90;3.22;;;17.40;99.90;;;;;;5043504;28;20028;-74
2022/05/25 05:47:51;;;;;;;;;;;17.30;99.90;;;;;;5042715;28;20074;-73
2022/05/25 05:50:19;;;;;;;5.18;2.83;;;17.40;99.90;;;;;;5042648;28;19920;-73
2022/05/25 05:52:45;;;;;;;5.30;3.30;;;17.50;99.90;;;;;;5056986;28;20117;-73
2022/05/25 05:55:11;;;;;;;4.45;2.63;;;17.60;99.90;;;;;;5063228;28;20086;-73
2022/05/25 05:57:38;;;;;;;5.20;3.55;;;17.80;99.90;;;;;;5063337;28;20037;-73
2022/05/25 06:00:05;;;;;;;4.78;3.20;;;17.90;99.90;;;;;;5043534;28;20033;-73
2022/05/25 06:02:31;;;;;;;7.88;4.18;;;17.80;99.90;;;;;;5043195;28;20033;-73
2022/05/25 06:04:57;;;;;;;6.78;4.72;;;17.50;99.90;;;;;;5042704;28;20075;-73
2022/05/25 06:07:23;;;;;;;9.43;5.60;;;17.20;99.90;;;;;;5043525;28;20111;-73
2022/05/25 06:09:48;;;;;;;7.35;4.93;;;17.20;99.90;;;;;;5042949;28;20033;-73
2022/05/25 06:12:14;;;;;;;5.80;4.47;;;17.30;99.90;;;;;;5042990;28;20035;-73
2022/05/25 06:14:41;;;;;;;6.30;4.55;;;17.30;99.90;;;;;;5033417;28;20117;-73
2022/05/25 06:19:51;;;;;;;8.75;5.68;;;17.80;99.90;;;;;;5046400;28;20235;-73
2022/05/25 06:22:18;;;;;;;10.00;5.45;;;17.90;99.90;;;;;;5047246;28;20489;-73
2022/05/25 06:24:50;;;;;;;9.55;7.03;;;17.90;99.90;;;;;;5036357;28;20357;-73
2022/05/25 06:27:17;;;;;;;10.93;6.88;;;17.70;99.90;;;;;;5041882;28;20079;-73
2022/05/25 06:29:47;;;;;;;9.57;5.43;;;17.40;99.90;;;;;;5047298;28;20086;-73
2022/05/25 06:32:13;;;;;;;9.93;6.95;;;17.40;99.90;;;;;;5040837;28;20159;-74
2022/05/25 06:34:40;;;;;;;8.90;7.13;;;17.40;99.90;;;;;;5042089;28;20525;-74
2022/05/25 06:37:07;;;;;;;9.10;6.72;;;17.40;99.90;;;;;;5044126;28;20555;-74
2022/05/25 06:39:37;;;;;;;11.48;6.68;;;17.40;99.90;;;;;;5046121;28;20402;-74
2022/05/25 06:42:04;;;;;;;11.75;6.00;;;17.50;99.90;;;;;;5043572;28;20449;-73
2022/05/25 06:44:30;;;;;;;9.20;5.38;;;17.30;99.90;;;;;;5057146;28;20460;-73
2022/05/25 06:46:57;;;;;;;9.02;4.50;;;17.30;99.90;;;;;;5066117;28;20459;-73
2022/05/25 06:49:22;;;;;;;5.88;4.13;;;17.20;99.90;;;;;;5054019;28;20021;-72
2022/05/25 06:51:48;;;;;;;6.88;4.13;;;17.30;99.90;;;;;;5043284;28;20057;-72
2022/05/25 06:54:16;;;;;;;6.65;4.43;;;17.20;99.90;;;;;;5047602;28;20033;-73
2022/05/25 06:56:41;;;;;;;6.53;5.28;;;17.30;99.90;;;;;;5046008;28;21045;-73
2022/05/25 06:59:08;;;;;;;6.70;5.80;;;17.30;99.90;;;;;;5044870;28;20028;-73
2022/05/25 07:01:34;;;;;;;10.20;6.63;;;17.30;99.90;;;;;;5044977;28;20033;-73
2022/05/25 07:04:00;;;;;;;9.75;6.57;;;17.20;99.90;;;;;;5044930;28;20044;-72
2022/05/25 07:06:26;;;;;;;8.93;6.88;;;17.20;99.90;;;;;;5045155;28;20040;-73
2022/05/25 07:08:53;;;;;;;8.50;6.40;;;17.40;99.90;;;;;;5043604;28;20060;-73
2022/05/25 07:11:20;;;;;;;7.45;5.80;;;17.60;99.90;;;;;;5045248;28;20040;-72
2022/05/25 07:13:46;;;;;;;7.10;4.38;;;17.90;99.90;;;;;;5042823;28;20029;-73
2022/05/25 07:16:14;;;;;;;6.78;4.30;;;17.90;99.90;;;;;;5043780;28;20367;-72
2022/05/25 07:18:41;;;;;;;8.25;3.92;;;17.80;99.90;;;;;;5044893;28;20032;-72
2022/05/25 07:21:19;;;;;;;8.93;4.25;;;17.70;99.90;;;;;;5044174;28;20025;-73
2022/05/25 07:23:47;;;;;;;7.63;4.43;;;17.60;99.90;;;;;;5040555;28;20067;-72
2022/05/25 07:26:14;;;;;;;8.63;4.10;;;17.70;99.90;;;;;;5043430;28;20043;-73
2022/05/25 07:28:40;;;;;;;7.68;4.43;;;17.60;99.90;;;;;;5043322;28;20383;-73
2022/05/25 07:31:07;;;;;;;5.20;4.30;;;17.70;99.90;;;;;;5044746;28;20036;-73
2022/05/25 07:33:35;;;;;;;5.28;3.33;;;17.50;99.90;;;;;;5044306;28;20025;-73
2022/05/25 07:36:02;;;;;;;5.40;3.35;;;17.50;99.90;;;;;;5044491;28;20115;-73
2022/05/25 07:38:29;;;;;;;6.72;3.78;;;17.50;99.90;;;;;;5044273;28;20028;-73
2022/05/25 07:40:55;;;;;;;8.20;3.58;;;17.60;99.90;;;;;;5042323;28;20025;-73
2022/05/25 07:43:23;;;;;;;6.22;3.88;;;17.60;99.90;;;;;;5043870;28;20490;-73
2022/05/25 07:45:48;;;;;;;7.45;4.38;;;17.60;99.90;;;;;;5044559;28;20662;-73
2022/05/25 07:48:14;;;;;;;7.32;4.15;;;17.70;99.90;;;;;;5045224;28;20037;-72
2022/05/25 07:50:42;;;;;;;6.45;4.10;;;17.80;99.90;;;;;;5044848;28;20021;-74
2022/05/25 07:53:55;;;;;;;5.20;3.88;;;17.70;99.90;;;;;;5045544;28;20037;-74
2022/05/25 07:55:55;;;;;;;7.15;4.43;;;17.60;99.90;;;;;;5037448;28;20040;-74
2022/05/25 07:58:21;;;;;;;7.35;3.80;;;17.70;99.90;;;;;;5043309;28;20045;-73
2022/05/25 08:00:51;;;;;;;6.03;3.80;;;17.80;99.90;;;;;;5044723;28;20599;-74
2022/05/25 08:06:01;;;;;;;6.38;3.55;;;18.00;99.90;;;;;;5044429;28;20405;-73
2022/05/25 08:08:27;;;;;;;4.15;2.70;;;18.00;99.90;;;;;;5044625;28;20037;-74
2022/05/25 08:11:01;;;;;;;5.95;3.13;;;17.90;99.90;;;;;;5044658;28;20037;-74
2022/05/25 08:13:28;;;;;;;6.13;3.25;;;17.90;99.90;;;;;;5035719;28;20039;-73
2022/05/25 08:15:53;;;;;;;4.30;2.70;;;18.10;99.90;;;;;;5032923;28;20063;-74
2022/05/25 08:18:20;;;;;;;4.47;2.78;;;18.30;99.90;;;;;;5042747;28;20020;-73
2022/05/25 08:20:46;;;;;;;6.10;3.17;;;18.20;99.90;;;;;;5045307;28;20037;-73
2022/05/25 08:23:15;;;;;;;4.97;2.63;;;18.20;99.90;;;;;;5044148;28;20040;-74
2022/05/25 08:25:41;;;;;;;4.15;2.70;;;18.20;99.90;;;;;;5045494;28;20109;-74
2022/05/25 08:28:07;;;;;;;4.13;2.40;;;18.20;99.90;;;;;;5044732;28;20129;-74
2022/05/25 08:30:36;;;;;;;5.68;2.72;;;18.20;99.90;;;;;;5045131;28;20029;-73
2022/05/25 08:33:01;;;;;;;3.97;2.10;;;18.10;99.90;;;;;;5042570;28;20025;-74
2022/05/25 08:35:27;;;;;;;6.30;2.03;;;18.20;99.90;;;;;;5045072;28;20132;-74
2022/05/25 08:37:57;;;;;;;6.65;2.35;;;18.30;99.90;;;;;;5044651;28;20235;-74
2022/05/25 08:40:24;;;;;;;5.28;2.53;;;18.30;99.90;;;;;;5044211;28;20028;-75
2022/05/25 08:42:50;;;;;;;5.07;2.42;;;18.20;99.90;;;;;;5044563;28;20037;-74
2022/05/25 08:45:16;;;;;;;4.75;2.40;;;18.30;99.90;;;;;;5044672;28;20375;-73
2022/05/25 08:47:50;;;;;;;5.47;3.15;;;18.30;99.90;;;;;;5044617;28;20029;-74
2022/05/25 08:50:16;;;;;;;;;;;18.30;99.90;;;;;;5037767;28;20025;-74
2022/05/25 08:52:43;;;;;;;4.88;2.47;;;18.40;99.90;;;;;;5044647;28;19912;-74
2022/05/25 08:55:11;;;;;;;6.43;2.65;;;18.40;99.90;;;;;;5043965;28;20074;-73
2022/05/25 08:57:42;;;;;;;5.13;2.63;;;18.50;99.90;;;;;;5044430;28;20436;-74
2022/05/25 09:00:14;;;;;;;4.68;2.72;;;18.90;99.90;;;;;;5043958;28;20100;-74
2022/05/25 09:02:53;;;;;;;6.35;3.03;;;19.50;99.90;;;;;;5044579;28;20033;-74
2022/05/25 09:05:34;;;;;;;6.95;2.78;;;19.80;99.90;;;;;;5044634;28;20059;-74
2022/05/25 09:08:12;;;;;;;5.45;2.85;;;19.90;99.90;;;;;;5039988;28;20052;-73
2022/05/25 09:10:44;;;;;;;4.60;2.80;;;20.00;99.90;;;;;;5044161;28;20032;-74
2022/05/25 09:13:32;;;;;;;5.43;3.03;;;20.30;99.90;;;;;;5035076;28;20025;-74
2022/05/25 09:16:16;;;;;;;5.63;2.80;;;20.40;99.90;;;;;;5043271;28;20036;-73
2022/05/25 09:19:17;;;;;;;5.45;2.80;;;20.00;99.90;;;;;;5040258;28;20479;-74
2022/05/25 09:21:56;;;;;;;6.03;2.92;;;20.50;99.90;;;;;;5043752;28;20021;-74
2022/05/25 09:24:24;;;;;;;5.75;2.92;;;20.30;99.90;;;;;;5042357;28;20594;-74
2022/05/25 09:26:51;;;;;;;5.25;2.40;;;20.10;99.90;;;;;;5045451;28;20036;-74
2022/05/25 09:29:18;;;;;;;5.65;2.90;;;20.10;99.90;;;;;;5043755;28;20683;-74
2022/05/25 09:31:52;;;;;;;6.28;3.13;;;20.00;99.90;;;;;;5043378;28;20380;-74
2022/05/25 09:34:34;;;;;;;4.43;2.58;;;20.20;99.90;;;;;;5044052;28;20433;-74
2022/05/25 09:37:10;;;;;;;4.05;2.15;;;20.00;99.90;;;;;;5059692;28;20035;-74
2022/05/25 09:39:42;;;;;;;4.35;1.90;;;20.20;99.90;;;;;;5062975;28;20028;-74
2022/05/25 09:42:18;;;;;;;4.05;2.15;;;20.10;99.90;;;;;;5041379;28;20029;-74
2022/05/25 09:44:52;;;;;;;4.05;1.85;;;20.60;99.90;;;;;;5044249;28;20047;-74
2022/05/25 09:47:42;;;;;;;3.95;2.08;;;20.80;99.90;;;;;;5043731;28;20120;-73
2022/05/25 09:50:14;;;;;;;4.30;2.47;;;21.00;99.90;;;;;;5043516;28;20040;-74
2022/05/25 09:52:45;;;;;;;3.90;1.98;;;21.00;99.90;;;;;;5047877;28;20425;-74
2022/05/25 09:55:23;;;;;;;4.38;2.25;;;21.60;99.90;;;;;;5047683;28;20083;-74
2022/05/25 09:57:57;;;;;;;4.15;2.10;;;21.60;99.90;;;;;;5045894;28;20033;-73
2022/05/25 10:00:37;;;;;;;4.18;1.73;;;21.50;99.90;;;;;;5047707;28;20060;-74
2022/05/25 10:03:34;;;;;;;4.85;1.98;;;21.50;99.90;;;;;;5047626;28;20040;-74
2022/05/25 10:06:01;;;;;;;8.05;2.03;;;21.90;99.90;;;;;;5046268;28;20040;-74
2022/05/25 10:08:36;;;;;;;4.25;2.13;;;22.30;99.90;;;;;;5046569;28;20045;-74
2022/05/25 10:11:28;;;;;;;5.05;2.28;;;21.80;99.90;;;;;;5045061;28;20055;-74
2022/05/25 10:14:14;;;;;;;3.05;1.75;;;21.90;99.90;;;;;;5043555;28;20026;-74
2022/05/25 10:16:39;;;;;;;3.50;1.73;;;21.90;99.90;;;;;;5048117;28;20044;-74
2022/05/25 10:19:14;;;;;;;2.95;1.80;;;22.20;99.90;;;;;;5047663;28;20041;-74
2022/05/25 10:22:03;;;;;;;4.30;1.67;;;22.00;99.30;;;;;;5047734;28;20027;-74
2022/05/25 10:24:41;;;;;;;3.45;1.60;;;22.30;99.90;;;;;;5047597;28;20064;-74
2022/05/25 10:27:34;;;;;;;3.35;1.60;;;22.10;99.60;;;;;;5047769;28;20032;-74
2022/05/25 10:38:30;;;;;;;3.10;1.77;;;21.60;99.80;;;;;;5050161;28;20086;-74
2022/05/25 10:40:58;;;;;;;5.60;1.98;;;21.70;99.90;;;;;;5050112;28;20025;-74
2022/05/25 10:43:29;;;;;;;4.40;2.25;;;21.30;99.90;;;;;;5049136;28;20656;-74
2022/05/25 10:45:56;;;;;;;3.00;1.65;;;20.90;99.90;;;;;;5049781;28;20099;-74
2022/05/25 10:48:52;;;;;;;3.88;1.50;;;21.10;99.90;;;;;;5047153;28;20048;-74
2022/05/25 10:51:33;;;;;;;4.78;1.70;;;21.50;99.90;;;;;;5069546;28;20383;-74
2022/05/25 10:57:13;;;;;;;2.75;1.40;;;21.90;99.80;;;;;;5042849;28;20127;-75
2022/05/25 11:00:03;;;;;;;2.90;1.38;;;21.70;99.40;;;;;;5053029;28;20033;-75
2022/05/25 11:02:47;;;;;;;4.55;1.45;;;21.60;99.50;;;;;;5050038;28;20037;-75
2022/05/25 11:05:16;;;;;;;2.90;1.20;;;21.90;98.80;;;;;;5045681;28;20124;-75
2022/05/25 11:07:42;;;;;;;3.20;1.33;;;22.10;98.40;;;;;;5049579;28;20072;-75
2022/05/25 11:10:11;;;;;;;3.78;1.85;;;22.30;98.60;;;;;;5044487;28;20091;-75
2022/05/25 11:12:54;;;;;;;3.60;1.10;;;22.20;98.90;;;;;;5042191;28;20029;-74
2022/05/25 11:15:29;;;;;;;4.60;1.95;;;22.40;98.50;;;;;;5048894;28;20033;-75
2022/05/25 11:18:28;;;;;;;2.08;1.20;;;22.10;98.60;;;;;;5049006;28;20021;-75
2022/05/25 11:21:16;;;;;;;2.22;1.10;;;21.50;98.50;;;;;;5052425;28;20098;-76
2022/05/25 11:23:51;;;;;;;2.08;1.13;;;21.10;98.20;;;;;;5047773;28;20036;-76
2022/05/25 11:26:28;;;;;;;2.30;1.13;;;21.30;98.70;;;;;;5048992;28;20032;-76
2022/05/25 11:29:27;;;;;;;2.67;1.30;;;21.20;98.60;;;;;;5049483;28;20041;-76
2022/05/25 11:32:00;;;;;;;3.75;1.48;;;20.80;98.90;;;;;;5049092;28;20044;-75
2022/05/25 11:34:53;;;;;;;2.58;1.35;;;20.80;99.60;;;;;;5047115;28;20052;-75
2022/05/25 11:37:31;;;;;;;2.63;1.30;;;20.70;99.90;;;;;;5045236;28;20111;-75
2022/05/25 11:40:24;;;;;;;2.38;1.20;;;20.50;99.90;;;;;;5038036;28;20611;-75
2022/05/25 11:43:04;;;;;;;1.80;0.90;;;20.10;99.90;;;;;;5045257;28;20036;-75
2022/05/25 11:46:00;;;;;;;4.10;1.20;;;19.80;99.90;;;;;;5045589;28;20667;-75
2022/05/25 11:48:51;;;;;;;3.17;1.30;;;19.80;99.90;;;;;;5044471;28;20075;-75
2022/05/25 11:51:31;;;;;;;3.65;1.42;;;19.60;99.90;;;;;;5044238;28;20115;-75
2022/05/25 11:54:17;;;;;;;4.28;1.20;;;19.10;99.90;;;;;;5044329;28;20029;-75
2022/05/25 11:56:48;;;;;;;4.80;1.33;;;19.00;99.90;;;;;;5040177;28;20490;-75
2022/05/25 11:59:39;;;;;;;5.78;1.50;;;18.70;99.90;;;;;;5044617;28;20991;-75
2022/05/25 12:02:16;;;;;;;6.43;1.77;;;18.50;99.90;;;;;;5042216;28;20683;-76
2022/05/25 12:05:08;;;;;;;7.50;2.00;;;17.80;99.90;;;;;;5044806;28;20048;-77
2022/05/25 12:08:03;;;;;;;14.93;2.67;;;17.40;99.90;;;;;;5014676;28;20648;-77
2022/05/25 12:10:31;;;;;;;5.78;1.40;;;17.20;99.90;;;;;;5046126;28;20431;-76
2022/05/25 12:13:21;;;;;;;7.30;1.63;;;16.90;99.90;;;;;;5044204;28;20125;-77
2022/05/25 12:15:59;;;;;;;12.18;2.10;;;17.30;99.90;;;;;;5045957;28;20129;-76
2022/05/25 12:18:45;;;;;;;3.33;1.20;;;17.40;99.90;;;;;;5044863;28;20025;-77
2022/05/25 12:21:19;;;;;;;5.07;1.15;;;17.40;99.90;;;;;;5045746;28;20528;-76
2022/05/25 12:23:49;;;;;;;;;;;17.10;99.90;;;;;;5045925;28;20544;-76
2022/05/25 12:26:28;;;;;;;3.67;1.30;;;16.90;99.90;;;;;;5027729;28;20404;-76
2022/05/25 12:29:11;;;;;;;3.78;1.35;;;17.00;99.90;;;;;;5045401;28;20045;-77
2022/05/25 12:31:37;;;;;;;2.22;1.00;;;17.10;99.90;;;;;;5044757;28;20041;-76
2022/05/25 12:34:04;;;;;;;3.05;1.20;;;17.10;99.90;;;;;;5048275;28;20376;-77
2022/05/25 12:36:31;;;;;;;4.45;1.50;;;17.40;99.90;;;;;;5048626;28;20134;-77
2022/05/25 12:38:58;;;;;;;5.20;1.33;;;17.70;99.90;;;;;;5057389;28;20079;-77
2022/05/25 12:41:32;;;;;;;3.97;1.48;;;17.90;99.90;;;;;;5066970;28;20020;-77
2022/05/25 12:49:47;;;;;;;3.72;1.42;;;18.00;99.90;;;;;;5044830;28;20059;-77
2022/05/25 12:52:28;;;;;;;4.88;1.50;;;18.10;99.90;;;;;;5045381;28;20028;-76
2022/05/25 12:55:00;;;;;;;2.60;1.23;;;18.30;99.90;;;;;;5044916;28;20059;-76
2022/05/25 12:57:40;;;;;;;5.30;1.38;;;18.40;99.90;;;;;;5041059;28;20024;-76
2022/05/25 13:00:19;;;;;;;3.53;1.20;;;18.80;99.90;;;;;;5044069;28;20471;-77
2022/05/25 13:02:45;;;;;;;3.55;1.30;;;19.20;99.90;;;;;;5045070;28;20483;-76
2022/05/25 13:05:46;;;;;;;1.92;1.20;;;19.50;99.90;;;;;;5036832;28;20048;-76
2022/05/25 13:08:46;;;;;;;2.08;1.10;;;19.10;99.90;;;;;;5044255;28;20043;-77
2022/05/25 13:11:34;;;;;;;2.15;1.00;;;19.00;99.90;;;;;;5044001;28;20554;-77
2022/05/25 13:14:16;;;;;;;1.95;1.00;;;19.00;99.90;;;;;;5044233;28;20048;-76
2022/05/25 13:16:48;;;;;;;3.30;1.40;;;19.60;99.90;;;;;;5044083;28;20119;-76
2022/05/25 13:19:29;;;;;;;2.88;1.10;;;20.10;99.90;;;;;;5044471;28;20021;-76
2022/05/25 13:22:02;;;;;;;1.55;0.73;;;20.00;99.90;;;;;;5038992;28;20055;-76
2022/05/25 13:24:53;;;;;;;1.77;0.90;;;19.70;99.90;;;;;;5044011;28;20067;-76
2022/05/25 13:27:43;;;;;;;3.10;1.40;;;19.90;99.90;;;;;;5044011;28;20037;-76
2022/05/25 13:30:27;;;;;;;2.50;1.20;;;20.10;99.90;;;;;;5043501;28;20041;-76
2022/05/25 13:33:21;;;;;;;1.90;1.10;;;20.10;99.90;;;;;;5044311;28;20028;-76
2022/05/25 13:36:19;;;;;;;2.10;1.00;;;20.20;99.90;;;;;;5040446;28;20041;-76
2022/05/25 13:38:58;;;;;;;2.85;1.20;;;20.40;99.90;;;;;;5019359;28;20590;-76
2022/05/25 13:41:32;;;;;;;3.88;1.38;;;20.60;99.90;;;;;;5044090;28;20029;-76
2022/05/25 13:43:58;;;;;;;3.20;1.42;;;20.70;99.90;;;;;;5044168;28;20033;-76